Beaver Dams, New York
Current Conditions -  °F | °C
As of 5:53 AM on Friday 21 Nov 2014 (Local Time) from KELM Reporting Station
Clear Clear  
Wind Chill:   Ceiling: Unl
Heat Index: 17°   Visibility: 10mi
Dew Point: 10°   Wind: 7mph
Humidity: 74%   Direction: 220°SW
Pressure: 30.14"   Gusts: NA
Location:  42.29°N, 76.96°W
Report Text: KELM 211053Z 22006KT 10SM CLR M08/M12 A3014 RMK AO2 SLP222 T10831122
Loading
Personal Weather Stations






























Interactive Weather Map New forecast layout! Learn more

10-Day Weather Forecast

Advertisements
Track Severe Weather on mobile